Seagoville's Hourly Summary for Wednesday, March 15, 2017
Hour Temp
(f)
RH
(%)
Solar Rad.
(MJ/m2)
Rainfall
(in)
Wind
(mph)
3/15/2017 12:00 AM 50 60 0 0 3.53
3/15/2017 1:00 AM 49 58 0 0 3.61
3/15/2017 2:00 AM 48 58 0 0 6.23
3/15/2017 3:00 AM 47 62 0 0 8.1
3/15/2017 4:00 AM 47 63 0 0 5.67
3/15/2017 5:00 AM 47 67 0 0 4.93
3/15/2017 6:00 AM 45 72 0 0 4.1
3/15/2017 7:00 AM 46 70 0.02 0 5.22
3/15/2017 8:00 AM 46 69 0.24 0 6.14
3/15/2017 9:00 AM 48 65 0.67 0 8.16
3/15/2017 10:00 AM 50 59 1.3 0 8.3
3/15/2017 11:00 AM 52 57 2.04 0 8.23
3/15/2017 12:00 PM 54 52 2.29 0 7.51
3/15/2017 1:00 PM 56 50 2.64 0 7.91
3/15/2017 2:00 PM 58 48 2.56 0 7.44
3/15/2017 3:00 PM 60 46 2.3 0 7.07
3/15/2017 4:00 PM 62 45 1.85 0 6.82
3/15/2017 5:00 PM 63 43 1.21 0 6.18
3/15/2017 6:00 PM 62 46 0.46 0 5.84
3/15/2017 7:00 PM 58 53 0.03 0 3.46
3/15/2017 8:00 PM 55 63 0 0 2.25
3/15/2017 9:00 PM 54 66 0 0 2.88
3/15/2017 10:00 PM 52 70 0 0 3.48
3/15/2017 11:00 PM 51 72 0 0 4.24
Data Summary 52 58 17.61 0.00 5.72